sensor_id;sensor_type;location;lat;lon;timestamp;P1;durP1;ratioP1;P2;durP2;ratioP2
73902;SDS011;62238;48.722;9.270;2022-09-12T00:00:26;5.88;;;3.28;;
73902;SDS011;62238;48.722;9.270;2022-09-12T00:02:52;4.90;;;3.60;;
73902;SDS011;62238;48.722;9.270;2022-09-12T00:05:17;6.25;;;3.38;;
73902;SDS011;62238;48.722;9.270;2022-09-12T00:07:43;4.60;;;3.27;;
73902;SDS011;62238;48.722;9.270;2022-09-12T00:10:08;5.17;;;3.20;;
73902;SDS011;62238;48.722;9.270;2022-09-12T00:12:34;6.22;;;3.45;;
73902;SDS011;62238;48.722;9.270;2022-09-12T00:14:59;5.43;;;3.40;;
73902;SDS011;62238;48.722;9.270;2022-09-12T00:17:24;4.67;;;3.37;;
73902;SDS011;62238;48.722;9.270;2022-09-12T00:19:50;5.63;;;3.50;;
73902;SDS011;62238;48.722;9.270;2022-09-12T00:22:15;5.43;;;3.43;;
73902;SDS011;62238;48.722;9.270;2022-09-12T00:24:40;6.07;;;3.13;;
73902;SDS011;62238;48.722;9.270;2022-09-12T00:27:06;4.17;;;3.10;;
73902;SDS011;62238;48.722;9.270;2022-09-12T00:29:31;5.07;;;3.30;;
73902;SDS011;62238;48.722;9.270;2022-09-12T00:31:56;7.03;;;3.63;;
73902;SDS011;62238;48.722;9.270;2022-09-12T00:34:22;5.60;;;3.37;;
73902;SDS011;62238;48.722;9.270;2022-09-12T00:36:47;4.83;;;3.40;;
73902;SDS011;62238;48.722;9.270;2022-09-12T00:39:14;4.67;;;3.47;;
73902;SDS011;62238;48.722;9.270;2022-09-12T00:41:40;5.57;;;3.43;;
73902;SDS011;62238;48.722;9.270;2022-09-12T00:46:41;4.67;;;3.27;;
73902;SDS011;62238;48.722;9.270;2022-09-12T00:49:15;5.13;;;3.55;;
73902;SDS011;62238;48.722;9.270;2022-09-12T00:51:43;5.57;;;3.40;;
73902;SDS011;62238;48.722;9.270;2022-09-12T00:54:14;5.32;;;3.85;;
73902;SDS011;62238;48.722;9.270;2022-09-12T00:56:41;4.70;;;3.60;;
73902;SDS011;62238;48.722;9.270;2022-09-12T00:59:11;5.23;;;3.27;;
73902;SDS011;62238;48.722;9.270;2022-09-12T01:01:39;6.45;;;3.50;;
73902;SDS011;62238;48.722;9.270;2022-09-12T01:04:06;6.50;;;3.80;;
73902;SDS011;62238;48.722;9.270;2022-09-12T01:06:34;5.38;;;3.40;;
73902;SDS011;62238;48.722;9.270;2022-09-12T01:09:01;4.78;;;3.50;;
73902;SDS011;62238;48.722;9.270;2022-09-12T01:11:29;5.40;;;3.60;;
73902;SDS011;62238;48.722;9.270;2022-09-12T01:13:55;5.10;;;3.47;;
73902;SDS011;62238;48.722;9.270;2022-09-12T01:16:20;5.93;;;3.47;;
73902;SDS011;62238;48.722;9.270;2022-09-12T01:30:38;4.70;;;3.22;;
73902;SDS011;62238;48.722;9.270;2022-09-12T01:33:10;6.65;;;3.45;;
73902;SDS011;62238;48.722;9.270;2022-09-12T01:36:07;4.63;;;3.40;;
73902;SDS011;62238;48.722;9.270;2022-09-12T01:41:26;5.72;;;3.38;;
73902;SDS011;62238;48.722;9.270;2022-09-12T01:49:14;4.87;;;3.17;;
73902;SDS011;62238;48.722;9.270;2022-09-12T01:54:36;6.18;;;3.50;;
73902;SDS011;62238;48.722;9.270;2022-09-12T01:57:06;5.75;;;3.30;;
73902;SDS011;62238;48.722;9.270;2022-09-12T01:59:37;4.82;;;3.28;;
73902;SDS011;62238;48.722;9.270;2022-09-12T02:02:10;4.90;;;3.07;;
73902;SDS011;62238;48.722;9.270;2022-09-12T02:04:48;4.60;;;3.20;;
73902;SDS011;62238;48.722;9.270;2022-09-12T02:07:25;4.63;;;3.50;;
73902;SDS011;62238;48.722;9.270;2022-09-12T02:10:01;7.05;;;3.47;;
73902;SDS011;62238;48.722;9.270;2022-09-12T02:12:33;4.60;;;3.05;;
73902;SDS011;62238;48.722;9.270;2022-09-12T02:15:08;5.10;;;3.47;;
73902;SDS011;62238;48.722;9.270;2022-09-12T02:17:35;4.72;;;3.38;;
73902;SDS011;62238;48.722;9.270;2022-09-12T02:20:45;5.13;;;3.33;;
73902;SDS011;62238;48.722;9.270;2022-09-12T02:22:55;5.80;;;3.35;;
73902;SDS011;62238;48.722;9.270;2022-09-12T02:25:21;5.72;;;3.33;;
73902;SDS011;62238;48.722;9.270;2022-09-12T02:27:49;5.63;;;3.67;;
73902;SDS011;62238;48.722;9.270;2022-09-12T02:30:18;5.85;;;3.33;;
73902;SDS011;62238;48.722;9.270;2022-09-12T02:38:09;5.65;;;3.85;;
73902;SDS011;62238;48.722;9.270;2022-09-12T02:40:36;6.10;;;3.97;;
73902;SDS011;62238;48.722;9.270;2022-09-12T02:43:02;4.88;;;3.45;;
73902;SDS011;62238;48.722;9.270;2022-09-12T02:45:29;6.28;;;3.70;;
73902;SDS011;62238;48.722;9.270;2022-09-12T02:48:14;5.10;;;3.63;;
73902;SDS011;62238;48.722;9.270;2022-09-12T02:50:42;5.18;;;3.60;;
73902;SDS011;62238;48.722;9.270;2022-09-12T02:53:08;5.78;;;3.47;;
73902;SDS011;62238;48.722;9.270;2022-09-12T02:55:34;5.93;;;3.40;;
73902;SDS011;62238;48.722;9.270;2022-09-12T02:58:01;6.50;;;3.35;;
73902;SDS011;62238;48.722;9.270;2022-09-12T03:00:29;4.38;;;3.20;;
73902;SDS011;62238;48.722;9.270;2022-09-12T03:11:04;4.47;;;3.13;;
73902;SDS011;62238;48.722;9.270;2022-09-12T03:16:34;5.53;;;3.30;;
73902;SDS011;62238;48.722;9.270;2022-09-12T03:19:14;4.97;;;3.40;;
73902;SDS011;62238;48.722;9.270;2022-09-12T03:21:57;4.57;;;3.40;;
73902;SDS011;62238;48.722;9.270;2022-09-12T03:24:29;6.22;;;3.38;;
73902;SDS011;62238;48.722;9.270;2022-09-12T03:27:04;5.40;;;3.00;;
73902;SDS011;62238;48.722;9.270;2022-09-12T03:29:40;4.87;;;3.20;;
73902;SDS011;62238;48.722;9.270;2022-09-12T03:32:06;5.32;;;3.85;;
73902;SDS011;62238;48.722;9.270;2022-09-12T03:34:31;5.27;;;3.10;;
73902;SDS011;62238;48.722;9.270;2022-09-12T03:36:57;5.20;;;3.40;;
73902;SDS011;62238;48.722;9.270;2022-09-12T03:39:23;5.30;;;3.80;;
73902;SDS011;62238;48.722;9.270;2022-09-12T03:41:49;5.95;;;3.50;;
73902;SDS011;62238;48.722;9.270;2022-09-12T03:44:15;5.30;;;3.40;;
73902;SDS011;62238;48.722;9.270;2022-09-12T03:46:41;5.10;;;3.30;;
73902;SDS011;62238;48.722;9.270;2022-09-12T03:49:06;5.50;;;3.40;;
73902;SDS011;62238;48.722;9.270;2022-09-12T03:51:31;4.50;;;3.23;;
73902;SDS011;62238;48.722;9.270;2022-09-12T03:53:57;4.20;;;3.27;;
73902;SDS011;62238;48.722;9.270;2022-09-12T03:56:22;6.07;;;3.30;;
73902;SDS011;62238;48.722;9.270;2022-09-12T03:58:47;5.23;;;3.40;;
73902;SDS011;62238;48.722;9.270;2022-09-12T04:01:14;5.22;;;3.35;;
73902;SDS011;62238;48.722;9.270;2022-09-12T04:03:42;5.28;;;3.30;;
73902;SDS011;62238;48.722;9.270;2022-09-12T04:06:09;5.00;;;3.40;;
73902;SDS011;62238;48.722;9.270;2022-09-12T04:08:36;6.55;;;3.53;;
73902;SDS011;62238;48.722;9.270;2022-09-12T04:11:06;4.65;;;3.25;;
73902;SDS011;62238;48.722;9.270;2022-09-12T04:13:33;6.43;;;3.38;;
73902;SDS011;62238;48.722;9.270;2022-09-12T04:15:59;5.95;;;3.70;;
73902;SDS011;62238;48.722;9.270;2022-09-12T04:18:25;5.63;;;3.67;;
73902;SDS011;62238;48.722;9.270;2022-09-12T04:20:51;6.20;;;3.78;;
73902;SDS011;62238;48.722;9.270;2022-09-12T04:23:16;5.87;;;3.40;;
73902;SDS011;62238;48.722;9.270;2022-09-12T04:25:41;6.60;;;3.67;;
73902;SDS011;62238;48.722;9.270;2022-09-12T04:28:07;4.87;;;3.10;;
73902;SDS011;62238;48.722;9.270;2022-09-12T04:30:32;5.50;;;3.80;;
73902;SDS011;62238;48.722;9.270;2022-09-12T04:32:58;6.13;;;3.90;;
73902;SDS011;62238;48.722;9.270;2022-09-12T04:35:23;5.38;;;3.85;;
73902;SDS011;62238;48.722;9.270;2022-09-12T04:37:49;6.97;;;4.13;;
73902;SDS011;62238;48.722;9.270;2022-09-12T04:40:14;5.90;;;3.70;;
73902;SDS011;62238;48.722;9.270;2022-09-12T04:42:40;6.63;;;4.00;;
73902;SDS011;62238;48.722;9.270;2022-09-12T04:45:05;6.53;;;4.18;;
73902;SDS011;62238;48.722;9.270;2022-09-12T04:47:31;5.13;;;3.53;;
73902;SDS011;62238;48.722;9.270;2022-09-12T04:49:56;7.00;;;4.13;;
73902;SDS011;62238;48.722;9.270;2022-09-12T04:52:22;5.03;;;3.50;;
73902;SDS011;62238;48.722;9.270;2022-09-12T04:54:47;5.43;;;3.80;;
73902;SDS011;62238;48.722;9.270;2022-09-12T04:57:12;6.40;;;3.70;;
73902;SDS011;62238;48.722;9.270;2022-09-12T04:59:38;7.43;;;3.67;;
73902;SDS011;62238;48.722;9.270;2022-09-12T05:02:03;6.78;;;3.65;;
73902;SDS011;62238;48.722;9.270;2022-09-12T05:04:29;6.63;;;3.70;;
73902;SDS011;62238;48.722;9.270;2022-09-12T05:06:55;5.65;;;3.30;;
73902;SDS011;62238;48.722;9.270;2022-09-12T05:09:21;4.63;;;3.10;;
73902;SDS011;62238;48.722;9.270;2022-09-12T05:11:46;4.97;;;3.00;;
73902;SDS011;62238;48.722;9.270;2022-09-12T05:14:12;5.50;;;3.70;;
73902;SDS011;62238;48.722;9.270;2022-09-12T05:16:37;4.60;;;3.47;;
73902;SDS011;62238;48.722;9.270;2022-09-12T05:19:02;5.80;;;3.50;;
73902;SDS011;62238;48.722;9.270;2022-09-12T05:21:28;4.82;;;3.50;;
73902;SDS011;62238;48.722;9.270;2022-09-12T05:23:56;7.07;;;3.70;;
73902;SDS011;62238;48.722;9.270;2022-09-12T05:26:24;6.28;;;3.58;;
73902;SDS011;62238;48.722;9.270;2022-09-12T05:28:49;5.40;;;3.30;;
73902;SDS011;62238;48.722;9.270;2022-09-12T05:31:17;5.65;;;2.95;;
73902;SDS011;62238;48.722;9.270;2022-09-12T05:33:44;5.28;;;3.13;;
73902;SDS011;62238;48.722;9.270;2022-09-12T05:36:21;5.93;;;3.33;;
73902;SDS011;62238;48.722;9.270;2022-09-12T05:38:48;6.33;;;3.30;;
73902;SDS011;62238;48.722;9.270;2022-09-12T05:41:21;5.35;;;3.20;;
73902;SDS011;62238;48.722;9.270;2022-09-12T05:43:58;5.47;;;3.30;;
73902;SDS011;62238;48.722;9.270;2022-09-12T05:46:26;5.65;;;3.13;;
73902;SDS011;62238;48.722;9.270;2022-09-12T05:48:52;5.40;;;3.20;;
73902;SDS011;62238;48.722;9.270;2022-09-12T05:51:30;4.93;;;3.03;;
73902;SDS011;62238;48.722;9.270;2022-09-12T05:53:57;5.40;;;3.30;;
73902;SDS011;62238;48.722;9.270;2022-09-12T05:56:27;5.97;;;3.20;;
73902;SDS011;62238;48.722;9.270;2022-09-12T05:58:54;5.70;;;3.50;;
73902;SDS011;62238;48.722;9.270;2022-09-12T06:01:21;5.87;;;3.40;;
73902;SDS011;62238;48.722;9.270;2022-09-12T06:03:48;7.00;;;4.63;;
73902;SDS011;62238;48.722;9.270;2022-09-12T06:06:16;6.45;;;3.70;;
73902;SDS011;62238;48.722;9.270;2022-09-12T06:08:44;7.53;;;5.50;;
73902;SDS011;62238;48.722;9.270;2022-09-12T06:11:12;7.33;;;4.83;;
73902;SDS011;62238;48.722;9.270;2022-09-12T06:13:39;8.02;;;5.10;;
73902;SDS011;62238;48.722;9.270;2022-09-12T06:16:07;8.45;;;5.10;;
73902;SDS011;62238;48.722;9.270;2022-09-12T06:18:34;6.80;;;4.97;;
73902;SDS011;62238;48.722;9.270;2022-09-12T06:21:01;6.82;;;4.53;;
73902;SDS011;62238;48.722;9.270;2022-09-12T06:23:27;7.67;;;4.50;;
73902;SDS011;62238;48.722;9.270;2022-09-12T06:25:53;7.03;;;4.30;;
73902;SDS011;62238;48.722;9.270;2022-09-12T06:28:19;8.30;;;4.00;;
73902;SDS011;62238;48.722;9.270;2022-09-12T06:30:44;6.05;;;4.03;;
73902;SDS011;62238;48.722;9.270;2022-09-12T06:33:10;7.57;;;4.13;;
73902;SDS011;62238;48.722;9.270;2022-09-12T06:35:35;6.13;;;3.63;;
73902;SDS011;62238;48.722;9.270;2022-09-12T06:38:02;5.32;;;3.70;;
73902;SDS011;62238;48.722;9.270;2022-09-12T06:40:27;6.50;;;3.57;;
73902;SDS011;62238;48.722;9.270;2022-09-12T06:42:53;6.03;;;4.03;;
73902;SDS011;62238;48.722;9.270;2022-09-12T06:45:19;4.50;;;3.40;;
73902;SDS011;62238;48.722;9.270;2022-09-12T06:47:45;5.30;;;3.30;;
73902;SDS011;62238;48.722;9.270;2022-09-12T06:50:10;5.90;;;3.50;;
73902;SDS011;62238;48.722;9.270;2022-09-12T06:52:36;6.37;;;3.63;;
73902;SDS011;62238;48.722;9.270;2022-09-12T06:55:04;5.00;;;3.40;;
73902;SDS011;62238;48.722;9.270;2022-09-12T06:57:30;5.65;;;3.45;;
73902;SDS011;62238;48.722;9.270;2022-09-12T06:59:56;5.03;;;3.20;;
73902;SDS011;62238;48.722;9.270;2022-09-12T07:02:22;4.68;;;3.03;;
73902;SDS011;62238;48.722;9.270;2022-09-12T07:04:49;6.40;;;3.30;;
73902;SDS011;62238;48.722;9.270;2022-09-12T07:07:15;4.93;;;3.20;;
73902;SDS011;62238;48.722;9.270;2022-09-12T07:09:41;4.93;;;3.20;;
73902;SDS011;62238;48.722;9.270;2022-09-12T07:12:06;4.87;;;3.13;;
73902;SDS011;62238;48.722;9.270;2022-09-12T07:14:32;4.30;;;2.90;;
73902;SDS011;62238;48.722;9.270;2022-09-12T07:16:57;4.93;;;3.00;;
73902;SDS011;62238;48.722;9.270;2022-09-12T07:19:22;7.13;;;3.00;;
73902;SDS011;62238;48.722;9.270;2022-09-12T07:21:48;4.17;;;2.77;;
73902;SDS011;62238;48.722;9.270;2022-09-12T07:24:17;5.47;;;3.03;;
73902;SDS011;62238;48.722;9.270;2022-09-12T07:26:42;5.00;;;3.03;;
73902;SDS011;62238;48.722;9.270;2022-09-12T07:29:11;4.72;;;3.08;;
73902;SDS011;62238;48.722;9.270;2022-09-12T07:31:38;4.78;;;2.95;;
73902;SDS011;62238;48.722;9.270;2022-09-12T07:34:04;5.87;;;3.20;;
73902;SDS011;62238;48.722;9.270;2022-09-12T07:36:30;6.43;;;3.00;;
73902;SDS011;62238;48.722;9.270;2022-09-12T07:38:55;4.23;;;2.73;;
73902;SDS011;62238;48.722;9.270;2022-09-12T07:41:22;5.27;;;3.10;;
73902;SDS011;62238;48.722;9.270;2022-09-12T07:43:53;5.85;;;3.00;;
73902;SDS011;62238;48.722;9.270;2022-09-12T07:46:22;4.70;;;3.38;;
73902;SDS011;62238;48.722;9.270;2022-09-12T07:48:49;4.20;;;2.85;;
73902;SDS011;62238;48.722;9.270;2022-09-12T07:51:16;4.43;;;2.80;;
73902;SDS011;62238;48.722;9.270;2022-09-12T07:53:41;4.40;;;2.93;;
73902;SDS011;62238;48.722;9.270;2022-09-12T07:56:10;5.03;;;2.85;;
73902;SDS011;62238;48.722;9.270;2022-09-12T07:58:36;6.28;;;3.20;;
73902;SDS011;62238;48.722;9.270;2022-09-12T08:01:11;5.03;;;3.00;;
73902;SDS011;62238;48.722;9.270;2022-09-12T08:03:38;4.75;;;2.90;;
73902;SDS011;62238;48.722;9.270;2022-09-12T08:06:05;5.00;;;3.10;;
73902;SDS011;62238;48.722;9.270;2022-09-12T08:08:35;6.75;;;2.90;;
73902;SDS011;62238;48.722;9.270;2022-09-12T08:11:01;5.10;;;2.88;;
73902;SDS011;62238;48.722;9.270;2022-09-12T08:13:30;4.88;;;3.00;;
73902;SDS011;62238;48.722;9.270;2022-09-12T08:15:56;3.80;;;2.70;;
73902;SDS011;62238;48.722;9.270;2022-09-12T08:18:23;6.00;;;3.30;;
73902;SDS011;62238;48.722;9.270;2022-09-12T08:20:54;4.97;;;3.47;;
73902;SDS011;62238;48.722;9.270;2022-09-12T08:23:23;6.10;;;3.25;;
73902;SDS011;62238;48.722;9.270;2022-09-12T08:25:49;6.32;;;3.60;;
73902;SDS011;62238;48.722;9.270;2022-09-12T08:28:14;5.67;;;3.30;;
73902;SDS011;62238;48.722;9.270;2022-09-12T08:30:40;3.80;;;2.90;;
73902;SDS011;62238;48.722;9.270;2022-09-12T08:33:05;5.37;;;3.13;;
73902;SDS011;62238;48.722;9.270;2022-09-12T08:35:31;4.90;;;3.17;;
73902;SDS011;62238;48.722;9.270;2022-09-12T08:37:57;4.03;;;3.07;;
73902;SDS011;62238;48.722;9.270;2022-09-12T08:40:22;5.20;;;2.97;;
73902;SDS011;62238;48.722;9.270;2022-09-12T08:42:53;4.28;;;2.83;;
73902;SDS011;62238;48.722;9.270;2022-09-12T08:45:45;6.07;;;2.90;;
73902;SDS011;62238;48.722;9.270;2022-09-12T08:48:17;5.22;;;2.78;;
73902;SDS011;62238;48.722;9.270;2022-09-12T08:50:43;3.60;;;2.53;;
73902;SDS011;62238;48.722;9.270;2022-09-12T08:53:11;6.90;;;2.90;;
73902;SDS011;62238;48.722;9.270;2022-09-12T08:55:57;4.03;;;2.60;;
73902;SDS011;62238;48.722;9.270;2022-09-12T08:58:23;6.22;;;2.70;;
73902;SDS011;62238;48.722;9.270;2022-09-12T09:03:55;4.50;;;2.70;;
73902;SDS011;62238;48.722;9.270;2022-09-12T09:17:44;3.38;;;2.47;;
73902;SDS011;62238;48.722;9.270;2022-09-12T09:22:57;3.45;;;2.60;;
73902;SDS011;62238;48.722;9.270;2022-09-12T09:25:45;5.35;;;2.60;;
73902;SDS011;62238;48.722;9.270;2022-09-12T09:28:20;5.55;;;2.30;;
73902;SDS011;62238;48.722;9.270;2022-09-12T09:30:48;3.97;;;2.50;;
73902;SDS011;62238;48.722;9.270;2022-09-12T09:33:18;3.10;;;2.37;;
73902;SDS011;62238;48.722;9.270;2022-09-12T09:35:47;3.78;;;2.30;;
73902;SDS011;62238;48.722;9.270;2022-09-12T09:41:12;3.00;;;2.05;;
73902;SDS011;62238;48.722;9.270;2022-09-12T09:43:51;4.78;;;2.22;;
73902;SDS011;62238;48.722;9.270;2022-09-12T09:46:17;4.73;;;2.43;;
73902;SDS011;62238;48.722;9.270;2022-09-12T09:48:48;4.35;;;2.20;;
73902;SDS011;62238;48.722;9.270;2022-09-12T09:51:16;3.03;;;2.13;;
73902;SDS011;62238;48.722;9.270;2022-09-12T09:53:44;3.30;;;1.88;;
73902;SDS011;62238;48.722;9.270;2022-09-12T09:59:10;3.65;;;2.17;;
73902;SDS011;62238;48.722;9.270;2022-09-12T10:01:56;3.25;;;2.10;;
73902;SDS011;62238;48.722;9.270;2022-09-12T10:04:31;4.40;;;2.13;;
73902;SDS011;62238;48.722;9.270;2022-09-12T10:06:59;4.03;;;1.90;;
73902;SDS011;62238;48.722;9.270;2022-09-12T10:09:26;3.20;;;1.95;;
73902;SDS011;62238;48.722;9.270;2022-09-12T10:11:59;4.10;;;2.15;;
73902;SDS011;62238;48.722;9.270;2022-09-12T10:14:31;3.22;;;2.00;;
73902;SDS011;62238;48.722;9.270;2022-09-12T10:17:24;4.30;;;2.10;;
73902;SDS011;62238;48.722;9.270;2022-09-12T10:19:52;3.67;;;1.92;;
73902;SDS011;62238;48.722;9.270;2022-09-12T10:22:18;3.45;;;2.10;;
73902;SDS011;62238;48.722;9.270;2022-09-12T10:24:47;3.67;;;2.10;;
73902;SDS011;62238;48.722;9.270;2022-09-12T10:27:15;3.38;;;2.10;;
73902;SDS011;62238;48.722;9.270;2022-09-12T10:29:45;3.45;;;1.77;;
73902;SDS011;62238;48.722;9.270;2022-09-12T10:34:51;2.70;;;2.10;;
73902;SDS011;62238;48.722;9.270;2022-09-12T10:37:21;3.43;;;1.97;;
73902;SDS011;62238;48.722;9.270;2022-09-12T10:39:56;5.95;;;2.05;;
73902;SDS011;62238;48.722;9.270;2022-09-12T10:42:43;3.88;;;2.00;;
73902;SDS011;62238;48.722;9.270;2022-09-12T10:45:22;2.45;;;2.00;;
73902;SDS011;62238;48.722;9.270;2022-09-12T10:47:59;2.90;;;2.03;;
73902;SDS011;62238;48.722;9.270;2022-09-12T10:55:49;3.30;;;2.25;;
73902;SDS011;62238;48.722;9.270;2022-09-12T11:01:07;2.83;;;1.90;;
73902;SDS011;62238;48.722;9.270;2022-09-12T11:06:20;4.15;;;1.83;;
73902;SDS011;62238;48.722;9.270;2022-09-12T11:08:55;2.80;;;1.90;;
73902;SDS011;62238;48.722;9.270;2022-09-12T11:20:11;2.58;;;1.80;;
73902;SDS011;62238;48.722;9.270;2022-09-12T11:23:09;3.08;;;1.90;;
73902;SDS011;62238;48.722;9.270;2022-09-12T11:34:09;7.22;;;2.70;;
73902;SDS011;62238;48.722;9.270;2022-09-12T11:36:42;5.80;;;2.35;;
73902;SDS011;62238;48.722;9.270;2022-09-12T11:39:16;3.90;;;2.08;;
73902;SDS011;62238;48.722;9.270;2022-09-12T11:41:56;4.70;;;1.90;;
73902;SDS011;62238;48.722;9.270;2022-09-12T11:47:10;4.35;;;1.80;;
73902;SDS011;62238;48.722;9.270;2022-09-12T11:49:39;5.47;;;1.80;;
73902;SDS011;62238;48.722;9.270;2022-09-12T12:00:18;2.25;;;1.50;;
73902;SDS011;62238;48.722;9.270;2022-09-12T12:08:07;3.35;;;1.70;;
73902;SDS011;62238;48.722;9.270;2022-09-12T12:10:39;2.43;;;1.47;;
73902;SDS011;62238;48.722;9.270;2022-09-12T12:13:07;3.25;;;1.42;;
73902;SDS011;62238;48.722;9.270;2022-09-12T12:15:47;1.88;;;1.27;;
73902;SDS011;62238;48.722;9.270;2022-09-12T12:18:18;2.13;;;1.38;;
73902;SDS011;62238;48.722;9.270;2022-09-12T12:20:47;2.22;;;1.52;;
73902;SDS011;62238;48.722;9.270;2022-09-12T12:23:23;2.13;;;1.40;;
73902;SDS011;62238;48.722;9.270;2022-09-12T12:25:55;2.28;;;1.40;;
73902;SDS011;62238;48.722;9.270;2022-09-12T12:31:06;1.65;;;1.30;;
73902;SDS011;62238;48.722;9.270;2022-09-12T12:38:27;3.10;;;1.30;;
73902;SDS011;62238;48.722;9.270;2022-09-12T12:43:40;2.58;;;1.23;;
73902;SDS011;62238;48.722;9.270;2022-09-12T12:46:07;2.95;;;1.70;;
73902;SDS011;62238;48.722;9.270;2022-09-12T12:48:35;2.83;;;1.40;;
73902;SDS011;62238;48.722;9.270;2022-09-12T12:53:53;2.78;;;1.30;;
73902;SDS011;62238;48.722;9.270;2022-09-12T12:56:37;2.40;;;1.40;;
73902;SDS011;62238;48.722;9.270;2022-09-12T12:59:10;2.00;;;1.20;;
73902;SDS011;62238;48.722;9.270;2022-09-12T13:01:43;2.80;;;1.40;;
73902;SDS011;62238;48.722;9.270;2022-09-12T13:04:16;2.45;;;1.10;;
73902;SDS011;62238;48.722;9.270;2022-09-12T13:06:43;2.85;;;1.80;;
73902;SDS011;62238;48.722;9.270;2022-09-12T13:11:52;2.38;;;1.52;;
73902;SDS011;62238;48.722;9.270;2022-09-12T13:14:46;4.03;;;1.70;;
73902;SDS011;62238;48.722;9.270;2022-09-12T13:17:20;2.25;;;1.40;;
73902;SDS011;62238;48.722;9.270;2022-09-12T13:19:46;2.85;;;1.33;;
73902;SDS011;62238;48.722;9.270;2022-09-12T13:22:12;2.70;;;1.20;;
73902;SDS011;62238;48.722;9.270;2022-09-12T13:24:45;1.30;;;1.00;;
73902;SDS011;62238;48.722;9.270;2022-09-12T13:27:31;2.30;;;1.20;;
73902;SDS011;62238;48.722;9.270;2022-09-12T13:30:13;2.03;;;1.20;;
73902;SDS011;62238;48.722;9.270;2022-09-12T13:32:39;3.45;;;1.30;;
73902;SDS011;62238;48.722;9.270;2022-09-12T13:35:08;2.07;;;1.20;;
73902;SDS011;62238;48.722;9.270;2022-09-12T13:37:44;1.45;;;0.85;;
73902;SDS011;62238;48.722;9.270;2022-09-12T13:43:14;2.03;;;1.00;;
73902;SDS011;62238;48.722;9.270;2022-09-12T13:45:41;1.58;;;0.95;;
73902;SDS011;62238;48.722;9.270;2022-09-12T13:48:13;1.30;;;0.80;;
73902;SDS011;62238;48.722;9.270;2022-09-12T13:53:20;2.42;;;1.00;;
73902;SDS011;62238;48.722;9.270;2022-09-12T13:55:49;1.45;;;1.00;;
73902;SDS011;62238;48.722;9.270;2022-09-12T14:00:58;1.20;;;1.00;;
73902;SDS011;62238;48.722;9.270;2022-09-12T14:03:32;3.65;;;1.10;;
73902;SDS011;62238;48.722;9.270;2022-09-12T14:06:21;2.25;;;0.85;;
73902;SDS011;62238;48.722;9.270;2022-09-12T14:08:46;1.40;;;0.70;;
73902;SDS011;62238;48.722;9.270;2022-09-12T14:11:17;1.15;;;0.73;;
73902;SDS011;62238;48.722;9.270;2022-09-12T14:13:48;1.80;;;0.80;;
73902;SDS011;62238;48.722;9.270;2022-09-12T14:16:14;1.90;;;0.85;;
73902;SDS011;62238;48.722;9.270;2022-09-12T14:18:41;1.70;;;1.02;;
73902;SDS011;62238;48.722;9.270;2022-09-12T14:21:10;1.73;;;0.90;;
73902;SDS011;62238;48.722;9.270;2022-09-12T14:23:40;1.58;;;0.95;;
73902;SDS011;62238;48.722;9.270;2022-09-12T14:26:08;1.93;;;0.90;;
73902;SDS011;62238;48.722;9.270;2022-09-12T14:28:37;2.22;;;1.10;;
73902;SDS011;62238;48.722;9.270;2022-09-12T14:33:46;1.55;;;1.00;;
73902;SDS011;62238;48.722;9.270;2022-09-12T14:36:18;1.90;;;1.00;;
73902;SDS011;62238;48.722;9.270;2022-09-12T14:38:48;1.77;;;1.10;;
73902;SDS011;62238;48.722;9.270;2022-09-12T14:41:20;3.45;;;1.10;;
73902;SDS011;62238;48.722;9.270;2022-09-12T14:44:14;1.48;;;1.10;;
73902;SDS011;62238;48.722;9.270;2022-09-12T14:46:43;3.22;;;1.00;;
73902;SDS011;62238;48.722;9.270;2022-09-12T14:51:37;2.83;;;1.10;;
73902;SDS011;62238;48.722;9.270;2022-09-12T14:56:57;1.70;;;1.00;;
73902;SDS011;62238;48.722;9.270;2022-09-12T14:59:41;1.50;;;0.93;;
73902;SDS011;62238;48.722;9.270;2022-09-12T15:07:35;1.93;;;1.20;;
73902;SDS011;62238;48.722;9.270;2022-09-12T15:10:03;1.70;;;1.00;;
73902;SDS011;62238;48.722;9.270;2022-09-12T15:12:41;1.70;;;1.10;;
73902;SDS011;62238;48.722;9.270;2022-09-12T15:15:12;2.77;;;1.13;;
73902;SDS011;62238;48.722;9.270;2022-09-12T15:17:40;1.85;;;1.13;;
73902;SDS011;62238;48.722;9.270;2022-09-12T15:20:05;2.67;;;1.13;;
73902;SDS011;62238;48.722;9.270;2022-09-12T15:22:31;3.10;;;1.20;;
73902;SDS011;62238;48.722;9.270;2022-09-12T15:24:57;2.45;;;1.00;;
73902;SDS011;62238;48.722;9.270;2022-09-12T15:27:23;2.55;;;1.23;;
73902;SDS011;62238;48.722;9.270;2022-09-12T15:29:50;2.80;;;1.00;;
73902;SDS011;62238;48.722;9.270;2022-09-12T15:32:21;2.00;;;1.00;;
73902;SDS011;62238;48.722;9.270;2022-09-12T15:34:50;4.78;;;1.10;;
73902;SDS011;62238;48.722;9.270;2022-09-12T15:37:16;4.15;;;1.23;;
73902;SDS011;62238;48.722;9.270;2022-09-12T15:39:44;1.97;;;1.00;;
73902;SDS011;62238;48.722;9.270;2022-09-12T15:42:10;1.42;;;1.02;;
73902;SDS011;62238;48.722;9.270;2022-09-12T15:44:36;1.40;;;1.05;;
73902;SDS011;62238;48.722;9.270;2022-09-12T15:47:02;2.87;;;1.03;;
73902;SDS011;62238;48.722;9.270;2022-09-12T15:49:28;2.38;;;1.23;;
73902;SDS011;62238;48.722;9.270;2022-09-12T15:51:54;2.30;;;1.20;;
73902;SDS011;62238;48.722;9.270;2022-09-12T15:54:19;2.43;;;1.10;;
73902;SDS011;62238;48.722;9.270;2022-09-12T15:56:45;4.32;;;1.30;;
73902;SDS011;62238;48.722;9.270;2022-09-12T15:59:10;2.47;;;1.10;;
73902;SDS011;62238;48.722;9.270;2022-09-12T16:01:35;3.90;;;1.10;;
73902;SDS011;62238;48.722;9.270;2022-09-12T16:04:01;3.00;;;1.10;;
73902;SDS011;62238;48.722;9.270;2022-09-12T16:06:27;2.40;;;1.08;;
73902;SDS011;62238;48.722;9.270;2022-09-12T16:08:55;5.03;;;1.52;;
73902;SDS011;62238;48.722;9.270;2022-09-12T16:11:21;1.90;;;0.90;;
73902;SDS011;62238;48.722;9.270;2022-09-12T16:13:48;4.07;;;1.20;;
73902;SDS011;62238;48.722;9.270;2022-09-12T16:16:16;1.80;;;1.15;;
73902;SDS011;62238;48.722;9.270;2022-09-12T16:18:41;4.37;;;1.30;;
73902;SDS011;62238;48.722;9.270;2022-09-12T16:21:06;2.33;;;0.90;;
73902;SDS011;62238;48.722;9.270;2022-09-12T16:23:33;1.33;;;0.80;;
73902;SDS011;62238;48.722;9.270;2022-09-12T16:26:11;4.68;;;2.35;;
73902;SDS011;62238;48.722;9.270;2022-09-12T16:28:36;17.17;;;6.43;;
73902;SDS011;62238;48.722;9.270;2022-09-12T16:31:02;59.67;;;14.77;;
73902;SDS011;62238;48.722;9.270;2022-09-12T16:33:29;24.90;;;7.50;;
73902;SDS011;62238;48.722;9.270;2022-09-12T16:36:04;30.40;;;8.57;;
73902;SDS011;62238;48.722;9.270;2022-09-12T16:38:32;31.10;;;8.07;;
73902;SDS011;62238;48.722;9.270;2022-09-12T16:41:01;37.77;;;9.50;;
73902;SDS011;62238;48.722;9.270;2022-09-12T16:43:28;35.28;;;9.73;;
73902;SDS011;62238;48.722;9.270;2022-09-12T16:46:01;21.55;;;6.57;;
73902;SDS011;62238;48.722;9.270;2022-09-12T16:48:30;18.67;;;5.22;;
73902;SDS011;62238;48.722;9.270;2022-09-12T16:50:59;16.70;;;5.30;;
73902;SDS011;62238;48.722;9.270;2022-09-12T16:53:30;16.07;;;4.67;;
73902;SDS011;62238;48.722;9.270;2022-09-12T16:55:56;11.38;;;4.00;;
73902;SDS011;62238;48.722;9.270;2022-09-12T16:58:21;11.70;;;3.60;;
73902;SDS011;62238;48.722;9.270;2022-09-12T17:00:47;11.65;;;3.38;;
73902;SDS011;62238;48.722;9.270;2022-09-12T17:03:12;8.17;;;2.90;;
73902;SDS011;62238;48.722;9.270;2022-09-12T17:05:37;7.33;;;2.53;;
73902;SDS011;62238;48.722;9.270;2022-09-12T17:08:03;9.67;;;2.83;;
73902;SDS011;62238;48.722;9.270;2022-09-12T17:10:29;9.23;;;2.58;;
73902;SDS011;62238;48.722;9.270;2022-09-12T17:12:55;7.80;;;2.58;;
73902;SDS011;62238;48.722;9.270;2022-09-12T17:15:21;6.33;;;2.20;;
73902;SDS011;62238;48.722;9.270;2022-09-12T17:17:47;8.50;;;2.63;;
73902;SDS011;62238;48.722;9.270;2022-09-12T17:20:12;7.43;;;2.83;;
73902;SDS011;62238;48.722;9.270;2022-09-12T17:22:37;7.80;;;2.37;;
73902;SDS011;62238;48.722;9.270;2022-09-12T17:25:03;6.70;;;2.50;;
73902;SDS011;62238;48.722;9.270;2022-09-12T17:27:29;4.77;;;2.00;;